sensor_id;sensor_type;location;lat;lon;timestamp;pressure;altitude;pressure_sealevel;temperature;humidity
29907;BME280;16776;50.958;10.994;2023-01-27T00:00:11;98926.16;;;-2.13;100.00
29907;BME280;16776;50.958;10.994;2023-01-27T00:02:39;98922.59;;;-2.20;100.00
29907;BME280;16776;50.958;10.994;2023-01-27T00:05:11;98933.66;;;-2.15;100.00
29907;BME280;16776;50.958;10.994;2023-01-27T00:07:38;98919.28;;;-2.18;100.00
29907;BME280;16776;50.958;10.994;2023-01-27T00:10:11;98921.81;;;-2.18;100.00
29907;BME280;16776;50.958;10.994;2023-01-27T00:12:38;98916.69;;;-2.21;100.00
29907;BME280;16776;50.958;10.994;2023-01-27T00:15:23;98921.75;;;-2.21;100.00
29907;BME280;16776;50.958;10.994;2023-01-27T00:17:50;98926.75;;;-2.22;100.00
29907;BME280;16776;50.958;10.994;2023-01-27T00:20:16;98919.97;;;-2.23;100.00
29907;BME280;16776;50.958;10.994;2023-01-27T00:23:05;98921.63;;;-2.24;100.00
29907;BME280;16776;50.958;10.994;2023-01-27T00:25:48;98919.97;;;-2.23;100.00
29907;BME280;16776;50.958;10.994;2023-01-27T00:28:22;98916.59;;;-2.24;100.00
29907;BME280;16776;50.958;10.994;2023-01-27T00:30:51;98915.84;;;-2.21;100.00
29907;BME280;16776;50.958;10.994;2023-01-27T00:33:18;98917.50;;;-2.22;100.00
29907;BME280;16776;50.958;10.994;2023-01-27T00:35:55;98918.47;;;-2.17;100.00
29907;BME280;16776;50.958;10.994;2023-01-27T00:38:22;98921.81;;;-2.18;100.00
29907;BME280;16776;50.958;10.994;2023-01-27T00:40:48;98915.97;;;-2.17;100.00
29907;BME280;16776;50.958;10.994;2023-01-27T00:43:29;98920.25;;;-2.14;100.00
29907;BME280;16776;50.958;10.994;2023-01-27T00:45:57;98922.03;;;-2.10;100.00
29907;BME280;16776;50.958;10.994;2023-01-27T00:48:23;98920.38;;;-2.09;100.00
29907;BME280;16776;50.958;10.994;2023-01-27T00:50:50;98914.59;;;-2.05;100.00
29907;BME280;16776;50.958;10.994;2023-01-27T00:53:16;98922.22;;;-2.04;100.00
29907;BME280;16776;50.958;10.994;2023-01-27T00:55:43;98922.25;;;-2.02;100.00
29907;BME280;16776;50.958;10.994;2023-01-27T00:58:11;98912.22;;;-2.01;100.00
29907;BME280;16776;50.958;10.994;2023-01-27T01:00:38;98918.19;;;-1.97;100.00
29907;BME280;16776;50.958;10.994;2023-01-27T01:03:06;98920.81;;;-1.94;100.00
29907;BME280;16776;50.958;10.994;2023-01-27T01:05:32;98925.88;;;-1.93;100.00
29907;BME280;16776;50.958;10.994;2023-01-27T01:07:59;98916.63;;;-1.92;100.00
29907;BME280;16776;50.958;10.994;2023-01-27T01:10:26;98922.59;;;-1.90;100.00
29907;BME280;16776;50.958;10.994;2023-01-27T01:12:52;98912.53;;;-1.89;100.00
29907;BME280;16776;50.958;10.994;2023-01-27T01:15:19;98911.75;;;-1.86;100.00
29907;BME280;16776;50.958;10.994;2023-01-27T01:17:45;98915.13;;;-1.86;100.00
29907;BME280;16776;50.958;10.994;2023-01-27T01:20:15;98909.28;;;-1.85;100.00
29907;BME280;16776;50.958;10.994;2023-01-27T01:22:42;98913.53;;;-1.84;100.00
29907;BME280;16776;50.958;10.994;2023-01-27T01:25:09;98922.81;;;-1.83;100.00
29907;BME280;16776;50.958;10.994;2023-01-27T01:27:35;98918.63;;;-1.82;100.00
29907;BME280;16776;50.958;10.994;2023-01-27T01:30:02;98916.09;;;-1.82;100.00
29907;BME280;16776;50.958;10.994;2023-01-27T01:32:28;98920.34;;;-1.81;100.00
29907;BME280;16776;50.958;10.994;2023-01-27T01:34:55;98920.34;;;-1.81;100.00
29907;BME280;16776;50.958;10.994;2023-01-27T01:37:23;98920.41;;;-1.78;100.00
29907;BME280;16776;50.958;10.994;2023-01-27T01:39:49;98921.22;;;-1.79;100.00
29907;BME280;16776;50.958;10.994;2023-01-27T01:42:16;98919.53;;;-1.79;100.00
29907;BME280;16776;50.958;10.994;2023-01-27T01:44:43;98897.44;;;-1.87;100.00
29907;BME280;16776;50.958;10.994;2023-01-27T01:47:14;98914.63;;;-1.74;100.00
29907;BME280;16776;50.958;10.994;2023-01-27T01:49:43;98916.31;;;-1.74;100.00
29907;BME280;16776;50.958;10.994;2023-01-27T01:52:13;98923.91;;;-1.73;100.00
29907;BME280;16776;50.958;10.994;2023-01-27T01:54:45;98924.00;;;-1.70;100.00
29907;BME280;16776;50.958;10.994;2023-01-27T01:57:15;98919.81;;;-1.69;100.00
29907;BME280;16776;50.958;10.994;2023-01-27T01:59:47;98919.81;;;-1.69;100.00
29907;BME280;16776;50.958;10.994;2023-01-27T02:02:17;98920.72;;;-1.66;100.00
29907;BME280;16776;50.958;10.994;2023-01-27T02:04:48;98921.63;;;-1.64;100.00
29907;BME280;16776;50.958;10.994;2023-01-27T02:07:20;98916.63;;;-1.62;100.00
29907;BME280;16776;50.958;10.994;2023-01-27T02:09:49;98916.66;;;-1.61;100.00
29907;BME280;16776;50.958;10.994;2023-01-27T02:12:16;98913.28;;;-1.61;100.00
29907;BME280;16776;50.958;10.994;2023-01-27T02:14:42;98909.91;;;-1.60;100.00
29907;BME280;16776;50.958;10.994;2023-01-27T02:17:12;98912.59;;;-1.56;100.00
29907;BME280;16776;50.958;10.994;2023-01-27T02:19:45;98916.00;;;-1.54;100.00
29907;BME280;16776;50.958;10.994;2023-01-27T02:22:23;98910.22;;;-1.50;100.00
29907;BME280;16776;50.958;10.994;2023-01-27T02:25:00;98913.59;;;-1.49;100.00
29907;BME280;16776;50.958;10.994;2023-01-27T02:27:35;98914.41;;;-1.50;100.00
29907;BME280;16776;50.958;10.994;2023-01-27T02:30:02;98909.31;;;-1.52;100.00
29907;BME280;16776;50.958;10.994;2023-01-27T02:32:28;98923.72;;;-1.48;100.00
29907;BME280;16776;50.958;10.994;2023-01-27T02:34:55;98925.44;;;-1.47;100.00
29907;BME280;16776;50.958;10.994;2023-01-27T02:37:23;98924.63;;;-1.46;100.00
29907;BME280;16776;50.958;10.994;2023-01-27T02:39:50;98917.91;;;-1.45;100.00
29907;BME280;16776;50.958;10.994;2023-01-27T02:42:19;98926.34;;;-1.45;100.00
29907;BME280;16776;50.958;10.994;2023-01-27T02:44:46;98926.41;;;-1.42;100.00
29907;BME280;16776;50.958;10.994;2023-01-27T02:47:13;98929.78;;;-1.43;100.00
29907;BME280;16776;50.958;10.994;2023-01-27T02:49:40;98928.13;;;-1.41;100.00
29907;BME280;16776;50.958;10.994;2023-01-27T02:52:06;98923.94;;;-1.40;100.00
29907;BME280;16776;50.958;10.994;2023-01-27T02:54:33;98922.22;;;-1.41;100.00
29907;BME280;16776;50.958;10.994;2023-01-27T02:56:59;98918.88;;;-1.40;100.00
29907;BME280;16776;50.958;10.994;2023-01-27T02:59:26;98929.84;;;-1.40;100.00
29907;BME280;16776;50.958;10.994;2023-01-27T03:01:54;98927.34;;;-1.38;100.00
29907;BME280;16776;50.958;10.994;2023-01-27T03:04:20;98929.84;;;-1.40;100.00
29907;BME280;16776;50.958;10.994;2023-01-27T03:06:47;98933.22;;;-1.39;100.00
29907;BME280;16776;50.958;10.994;2023-01-27T03:09:14;98934.03;;;-1.40;100.00
29907;BME280;16776;50.958;10.994;2023-01-27T03:11:41;98932.34;;;-1.40;100.00
29907;BME280;16776;50.958;10.994;2023-01-27T03:14:25;98939.06;;;-1.40;100.00
29907;BME280;16776;50.958;10.994;2023-01-27T03:17:10;98939.94;;;-1.40;100.00
29907;BME280;16776;50.958;10.994;2023-01-27T03:19:54;98947.50;;;-1.40;100.00
29907;BME280;16776;50.958;10.994;2023-01-27T03:22:21;98936.59;;;-1.39;100.00
29907;BME280;16776;50.958;10.994;2023-01-27T03:24:47;98942.50;;;-1.38;100.00
29907;BME280;16776;50.958;10.994;2023-01-27T03:27:15;98941.75;;;-1.35;100.00
29907;BME280;16776;50.958;10.994;2023-01-27T03:29:42;98940.84;;;-1.38;100.00
29907;BME280;16776;50.958;10.994;2023-01-27T03:32:22;98946.81;;;-1.35;100.00
29907;BME280;16776;50.958;10.994;2023-01-27T03:34:49;98956.84;;;-1.37;100.00
29907;BME280;16776;50.958;10.994;2023-01-27T03:37:16;98950.13;;;-1.37;100.00
29907;BME280;16776;50.958;10.994;2023-01-27T03:40:00;98949.28;;;-1.37;100.00
29907;BME280;16776;50.958;10.994;2023-01-27T03:42:44;98949.28;;;-1.37;100.00
29907;BME280;16776;50.958;10.994;2023-01-27T03:45:28;98957.72;;;-1.37;100.00
29907;BME280;16776;50.958;10.994;2023-01-27T03:48:13;98962.78;;;-1.35;100.00
29907;BME280;16776;50.958;10.994;2023-01-27T03:50:42;98956.91;;;-1.35;100.00
29907;BME280;16776;50.958;10.994;2023-01-27T03:53:18;98956.06;;;-1.34;100.00
29907;BME280;16776;50.958;10.994;2023-01-27T03:55:44;98956.06;;;-1.34;100.00
29907;BME280;16776;50.958;10.994;2023-01-27T03:58:18;98952.88;;;-1.29;100.00
29907;BME280;16776;50.958;10.994;2023-01-27T04:00:45;98957.81;;;-1.32;100.00
29907;BME280;16776;50.958;10.994;2023-01-27T04:03:14;98943.31;;;-1.39;100.00
29907;BME280;16776;50.958;10.994;2023-01-27T04:06:01;98960.47;;;-1.27;100.00
29907;BME280;16776;50.958;10.994;2023-01-27T04:08:46;98959.59;;;-1.28;100.00
29907;BME280;16776;50.958;10.994;2023-01-27T04:11:13;98952.03;;;-1.28;100.00
29907;BME280;16776;50.958;10.994;2023-01-27T04:13:59;98950.44;;;-1.24;100.00
29907;BME280;16776;50.958;10.994;2023-01-27T04:16:26;98956.31;;;-1.25;100.00
29907;BME280;16776;50.958;10.994;2023-01-27T04:18:56;98956.38;;;-1.22;100.00
29907;BME280;16776;50.958;10.994;2023-01-27T04:21:23;98957.22;;;-1.22;100.00
29907;BME280;16776;50.958;10.994;2023-01-27T04:23:51;98957.28;;;-1.20;100.00
29907;BME280;16776;50.958;10.994;2023-01-27T04:26:17;98958.19;;;-1.18;100.00
29907;BME280;16776;50.958;10.994;2023-01-27T04:28:44;98953.06;;;-1.20;100.00
29907;BME280;16776;50.958;10.994;2023-01-27T04:31:12;98958.22;;;-1.17;100.00
29907;BME280;16776;50.958;10.994;2023-01-27T04:33:38;98966.66;;;-1.16;100.00
29907;BME280;16776;50.958;10.994;2023-01-27T04:36:07;98968.44;;;-1.12;100.00
29907;BME280;16776;50.958;10.994;2023-01-27T04:38:33;98963.38;;;-1.12;100.00
29907;BME280;16776;50.958;10.994;2023-01-27T04:41:00;98966.81;;;-1.10;100.00
29907;BME280;16776;50.958;10.994;2023-01-27T04:43:26;98971.03;;;-1.09;100.00
29907;BME280;16776;50.958;10.994;2023-01-27T04:45:53;98971.06;;;-1.08;100.00
29907;BME280;16776;50.958;10.994;2023-01-27T04:48:20;98976.19;;;-1.06;100.00
29907;BME280;16776;50.958;10.994;2023-01-27T04:50:46;98980.41;;;-1.05;100.00
29907;BME280;16776;50.958;10.994;2023-01-27T04:53:16;98978.75;;;-1.03;100.00
29907;BME280;16776;50.958;10.994;2023-01-27T04:55:45;98988.91;;;-1.02;100.00
29907;BME280;16776;50.958;10.994;2023-01-27T04:58:13;98988.06;;;-1.02;100.00
29907;BME280;16776;50.958;10.994;2023-01-27T05:00:41;98987.19;;;-1.03;100.00
29907;BME280;16776;50.958;10.994;2023-01-27T05:03:07;98989.81;;;-1.00;100.00
29907;BME280;16776;50.958;10.994;2023-01-27T05:05:36;98995.72;;;-0.99;100.00
29907;BME280;16776;50.958;10.994;2023-01-27T05:08:02;98990.72;;;-0.98;100.00
29907;BME280;16776;50.958;10.994;2023-01-27T05:10:30;98991.59;;;-0.96;100.00
29907;BME280;16776;50.958;10.994;2023-01-27T05:12:57;98988.22;;;-0.96;100.00
29907;BME280;16776;50.958;10.994;2023-01-27T05:15:24;98989.06;;;-0.96;100.00
29907;BME280;16776;50.958;10.994;2023-01-27T05:17:51;98991.63;;;-0.94;100.00
29907;BME280;16776;50.958;10.994;2023-01-27T05:20:19;98989.97;;;-0.93;100.00
29907;BME280;16776;50.958;10.994;2023-01-27T05:22:46;98990.03;;;-0.92;100.00
29907;BME280;16776;50.958;10.994;2023-01-27T05:25:12;98984.06;;;-0.94;100.00
29907;BME280;16776;50.958;10.994;2023-01-27T05:27:40;98988.34;;;-0.90;100.00
29907;BME280;16776;50.958;10.994;2023-01-27T05:30:08;98985.84;;;-0.90;100.00
29907;BME280;16776;50.958;10.994;2023-01-27T05:32:34;98988.66;;;-0.79;100.00
29907;BME280;16776;50.958;10.994;2023-01-27T05:35:01;98994.31;;;-0.53;100.00
29907;BME280;16776;50.958;10.994;2023-01-27T05:37:27;98994.88;;;-0.29;100.00
29907;BME280;16776;50.958;10.994;2023-01-27T05:39:54;99002.88;;;-0.11;100.00
29907;BME280;16776;50.958;10.994;2023-01-27T05:42:21;98998.03;;;-0.00;100.00
29907;BME280;16776;50.958;10.994;2023-01-27T05:44:48;98990.59;;;0.07;100.00
29907;BME280;16776;50.958;10.994;2023-01-27T05:47:15;99000.72;;;0.07;100.00
29907;BME280;16776;50.958;10.994;2023-01-27T05:49:42;99000.72;;;0.07;100.00
29907;BME280;16776;50.958;10.994;2023-01-27T05:52:08;99000.66;;;0.04;100.00
29907;BME280;16776;50.958;10.994;2023-01-27T05:54:35;99003.13;;;0.01;100.00
29907;BME280;16776;50.958;10.994;2023-01-27T05:57:01;99003.88;;;-0.03;100.00
29907;BME280;16776;50.958;10.994;2023-01-27T05:59:30;98999.56;;;-0.07;100.00
29907;BME280;16776;50.958;10.994;2023-01-27T06:01:58;99004.56;;;-0.10;100.00
29907;BME280;16776;50.958;10.994;2023-01-27T06:04:24;99001.91;;;-0.16;100.00
29907;BME280;16776;50.958;10.994;2023-01-27T06:06:51;98992.38;;;-0.28;100.00
29907;BME280;16776;50.958;10.994;2023-01-27T06:09:18;99005.03;;;-0.26;100.00
29907;BME280;16776;50.958;10.994;2023-01-27T06:11:45;99003.28;;;-0.30;100.00
29907;BME280;16776;50.958;10.994;2023-01-27T06:14:11;99005.66;;;-0.36;100.00
29907;BME280;16776;50.958;10.994;2023-01-27T06:16:38;99011.50;;;-0.40;100.00
29907;BME280;16776;50.958;10.994;2023-01-27T06:19:06;99013.13;;;-0.42;100.00
29907;BME280;16776;50.958;10.994;2023-01-27T06:21:32;99013.88;;;-0.46;100.00
29907;BME280;16776;50.958;10.994;2023-01-27T06:23:59;99011.25;;;-0.49;100.00
29907;BME280;16776;50.958;10.994;2023-01-27T06:26:25;99016.28;;;-0.52;100.00
29907;BME280;16776;50.958;10.994;2023-01-27T06:28:52;99008.63;;;-0.54;100.00
29907;BME280;16776;50.958;10.994;2023-01-27T06:31:20;99022.06;;;-0.57;100.00
29907;BME280;16776;50.958;10.994;2023-01-27T06:33:47;99015.19;;;-0.62;100.00
29907;BME280;16776;50.958;10.994;2023-01-27T06:36:17;99014.47;;;-0.57;100.00
29907;BME280;16776;50.958;10.994;2023-01-27T06:38:44;99015.22;;;-0.61;100.00
29907;BME280;16776;50.958;10.994;2023-01-27T06:41:11;99027.81;;;-0.62;100.00
29907;BME280;16776;50.958;10.994;2023-01-27T06:43:37;99017.66;;;-0.64;100.00
29907;BME280;16776;50.958;10.994;2023-01-27T06:46:04;99031.13;;;-0.65;100.00
29907;BME280;16776;50.958;10.994;2023-01-27T06:48:33;99022.53;;;-0.73;100.00
29907;BME280;16776;50.958;10.994;2023-01-27T06:51:02;99030.22;;;-0.68;100.00
29907;BME280;16776;50.958;10.994;2023-01-27T06:53:29;99037.78;;;-0.68;100.00
29907;BME280;16776;50.958;10.994;2023-01-27T06:55:57;99030.97;;;-0.71;100.00
29907;BME280;16776;50.958;10.994;2023-01-27T06:58:24;99020.56;;;-0.84;100.00
29907;BME280;16776;50.958;10.994;2023-01-27T07:00:51;99042.75;;;-0.73;100.00
29907;BME280;16776;50.958;10.994;2023-01-27T07:03:18;99051.09;;;-0.75;100.00
29907;BME280;16776;50.958;10.994;2023-01-27T07:05:44;99051.06;;;-0.77;100.00
29907;BME280;16776;50.958;10.994;2023-01-27T07:08:11;99052.78;;;-0.76;100.00
29907;BME280;16776;50.958;10.994;2023-01-27T07:10:39;99054.50;;;-0.75;100.00
29907;BME280;16776;50.958;10.994;2023-01-27T07:13:05;99051.06;;;-0.77;100.00
29907;BME280;16776;50.958;10.994;2023-01-27T07:15:32;99047.66;;;-0.79;100.00
29907;BME280;16776;50.958;10.994;2023-01-27T07:17:59;99048.47;;;-0.80;100.00
29907;BME280;16776;50.958;10.994;2023-01-27T07:20:26;99056.91;;;-0.79;100.00
29907;BME280;16776;50.958;10.994;2023-01-27T07:22:55;99051.06;;;-0.77;100.00
29907;BME280;16776;50.958;10.994;2023-01-27T07:25:22;99058.63;;;-0.78;100.00
29907;BME280;16776;50.958;10.994;2023-01-27T07:27:50;99062.84;;;-0.77;100.00
29907;BME280;16776;50.958;10.994;2023-01-27T07:30:16;99061.13;;;-0.80;100.00
29907;BME280;16776;50.958;10.994;2023-01-27T07:32:44;99059.44;;;-0.79;100.00
29907;BME280;16776;50.958;10.994;2023-01-27T07:35:11;99065.34;;;-0.79;100.00
29907;BME280;16776;50.958;10.994;2023-01-27T07:37:40;99065.38;;;-0.77;100.00
29907;BME280;16776;50.958;10.994;2023-01-27T07:40:08;99060.97;;;-0.86;100.00
29907;BME280;16776;50.958;10.994;2023-01-27T07:42:37;99076.34;;;-0.77;100.00
29907;BME280;16776;50.958;10.994;2023-01-27T07:45:07;99068.81;;;-0.75;100.00
29907;BME280;16776;50.958;10.994;2023-01-27T07:47:36;99077.19;;;-0.78;100.00
29907;BME280;16776;50.958;10.994;2023-01-27T07:50:04;99076.28;;;-0.80;100.00
29907;BME280;16776;50.958;10.994;2023-01-27T07:52:30;99075.34;;;-0.83;100.00
29907;BME280;16776;50.958;10.994;2023-01-27T07:54:57;99084.63;;;-0.82;100.00
29907;BME280;16776;50.958;10.994;2023-01-27T07:57:23;99091.34;;;-0.83;100.00
29907;BME280;16776;50.958;10.994;2023-01-27T07:59:53;99099.81;;;-0.82;100.00
29907;BME280;16776;50.958;10.994;2023-01-27T08:02:22;99094.78;;;-0.81;100.00
29907;BME280;16776;50.958;10.994;2023-01-27T08:04:50;99095.59;;;-0.82;100.00
29907;BME280;16776;50.958;10.994;2023-01-27T08:07:17;99103.19;;;-0.82;100.00
29907;BME280;16776;50.958;10.994;2023-01-27T08:09:46;99109.16;;;-0.80;100.00
29907;BME280;16776;50.958;10.994;2023-01-27T08:12:12;99106.53;;;-0.83;100.00
29907;BME280;16776;50.958;10.994;2023-01-27T08:14:39;99111.59;;;-0.83;100.00
29907;BME280;16776;50.958;10.994;2023-01-27T08:17:09;99108.19;;;-0.83;100.00
29907;BME280;16776;50.958;10.994;2023-01-27T08:19:40;99116.75;;;-0.80;100.00
29907;BME280;16776;50.958;10.994;2023-01-27T08:22:06;99115.84;;;-0.82;100.00
29907;BME280;16776;50.958;10.994;2023-01-27T08:24:33;99115.88;;;-0.80;100.00
29907;BME280;16776;50.958;10.994;2023-01-27T08:27:00;99122.66;;;-0.79;100.00
29907;BME280;16776;50.958;10.994;2023-01-27T08:29:27;99125.22;;;-0.78;100.00
29907;BME280;16776;50.958;10.994;2023-01-27T08:31:57;99125.25;;;-0.76;100.00
29907;BME280;16776;50.958;10.994;2023-01-27T08:34:24;99126.09;;;-0.76;100.00
29907;BME280;16776;50.958;10.994;2023-01-27T08:36:51;99126.16;;;-0.74;100.00
29907;BME280;16776;50.958;10.994;2023-01-27T08:39:21;99129.53;;;-0.74;100.00
29907;BME280;16776;50.958;10.994;2023-01-27T08:41:47;99136.38;;;-0.71;100.00
29907;BME280;16776;50.958;10.994;2023-01-27T08:44:14;99132.13;;;-0.71;100.00
29907;BME280;16776;50.958;10.994;2023-01-27T08:46:40;99133.84;;;-0.70;100.00
29907;BME280;16776;50.958;10.994;2023-01-27T08:49:07;99133.09;;;-0.67;100.00
29907;BME280;16776;50.958;10.994;2023-01-27T08:51:34;99137.41;;;-0.63;100.00
29907;BME280;16776;50.958;10.994;2023-01-27T08:54:02;99140.03;;;-0.60;100.00
29907;BME280;16776;50.958;10.994;2023-01-27T08:56:28;99140.91;;;-0.58;100.00
29907;BME280;16776;50.958;10.994;2023-01-27T08:58:55;99138.47;;;-0.55;100.00
29907;BME280;16776;50.958;10.994;2023-01-27T09:01:21;99132.63;;;-0.52;100.00
29907;BME280;16776;50.958;10.994;2023-01-27T09:03:48;99142.81;;;-0.49;100.00
29907;BME280;16776;50.958;10.994;2023-01-27T09:06:15;99145.44;;;-0.45;100.00
29907;BME280;16776;50.958;10.994;2023-01-27T09:08:42;99132.69;;;-0.49;100.00
29907;BME280;16776;50.958;10.994;2023-01-27T09:11:12;99146.56;;;-0.35;100.00
29907;BME280;16776;50.958;10.994;2023-01-27T09:13:39;99156.75;;;-0.32;100.00
29907;BME280;16776;50.958;10.994;2023-01-27T09:16:07;99152.59;;;-0.30;100.00
29907;BME280;16776;50.958;10.994;2023-01-27T09:18:35;99154.34;;;-0.26;100.00
29907;BME280;16776;50.958;10.994;2023-01-27T09:21:02;99150.19;;;-0.24;100.00
29907;BME280;16776;50.958;10.994;2023-01-27T09:23:30;99153.69;;;-0.21;100.00
29907;BME280;16776;50.958;10.994;2023-01-27T09:25:56;99158.84;;;-0.16;100.00
29907;BME280;16776;50.958;10.994;2023-01-27T09:28:24;99155.59;;;-0.10;100.00
29907;BME280;16776;50.958;10.994;2023-01-27T09:30:55;99156.53;;;-0.07;100.00
29907;BME280;16776;50.958;10.994;2023-01-27T09:33:23;99154.00;;;-0.07;100.00
29907;BME280;16776;50.958;10.994;2023-01-27T09:35:55;99152.44;;;-0.02;100.00
29907;BME280;16776;50.958;10.994;2023-01-27T09:38:24;99160.03;;;-0.02;100.00
29907;BME280;16776;50.958;10.994;2023-01-27T09:41:07;99161.06;;;0.06;100.00
29907;BME280;16776;50.958;10.994;2023-01-27T09:43:51;99159.44;;;0.08;100.00
29907;BME280;16776;50.958;10.994;2023-01-27T09:46:31;99156.94;;;0.10;100.00
29907;BME280;16776;50.958;10.994;2023-01-27T09:49:13;99161.19;;;0.11;100.00
29907;BME280;16776;50.958;10.994;2023-01-27T09:51:52;99161.19;;;0.12;100.00
29907;BME280;16776;50.958;10.994;2023-01-27T09:54:38;99154.59;;;0.17;100.00
29907;BME280;16776;50.958;10.994;2023-01-27T09:57:16;99146.13;;;0.17;100.00
29907;BME280;16776;50.958;10.994;2023-01-27T10:00:09;99158.91;;;0.21;100.00
29907;BME280;16776;50.958;10.994;2023-01-27T10:03:11;99158.06;;;0.22;100.00
29907;BME280;16776;50.958;10.994;2023-01-27T10:05:52;99159.72;;;0.20;100.00
29907;BME280;16776;50.958;10.994;2023-01-27T10:11:27;99162.19;;;0.17;100.00
29907;BME280;16776;50.958;10.994;2023-01-27T10:14:05;99156.31;;;0.18;100.00
29907;BME280;16776;50.958;10.994;2023-01-27T10:16:48;99157.13;;;0.19;100.00
29907;BME280;16776;50.958;10.994;2023-01-27T10:19:36;99157.13;;;0.19;100.00
29907;BME280;16776;50.958;10.994;2023-01-27T10:22:15;99163.00;;;0.16;100.00
29907;BME280;16776;50.958;10.994;2023-01-27T10:24:53;99167.25;;;0.17;100.00
29907;BME280;16776;50.958;10.994;2023-01-27T10:27:25;99167.13;;;0.13;100.00
29907;BME280;16776;50.958;10.994;2023-01-27T10:30:01;99168.97;;;0.18;100.00
29907;BME280;16776;50.958;10.994;2023-01-27T10:32:37;99154.38;;;0.08;100.00
29907;BME280;16776;50.958;10.994;2023-01-27T10:35:15;99175.72;;;0.19;100.00
29907;BME280;16776;50.958;10.994;2023-01-27T10:37:49;99151.84;;;0.08;100.00
29907;BME280;16776;50.958;10.994;2023-01-27T10:40:26;99169.84;;;0.20;100.00
29907;BME280;16776;50.958;10.994;2023-01-27T10:43:02;99171.56;;;0.21;100.00
29907;BME280;16776;50.958;10.994;2023-01-27T10:45:35;99163.78;;;0.14;100.00
29907;BME280;16776;50.958;10.994;2023-01-27T10:48:28;99176.75;;;0.28;100.00
29907;BME280;16776;50.958;10.994;2023-01-27T10:51:01;99169.06;;;0.23;100.00
29907;BME280;16776;50.958;10.994;2023-01-27T10:53:34;99166.56;;;0.24;100.00
29907;BME280;16776;50.958;10.994;2023-01-27T10:56:03;99166.63;;;0.28;100.00
29907;BME280;16776;50.958;10.994;2023-01-27T10:58:41;99166.56;;;0.24;100.00
29907;BME280;16776;50.958;10.994;2023-01-27T11:01:13;99161.50;;;0.24;100.00
29907;BME280;16776;50.958;10.994;2023-01-27T11:03:46;99159.91;;;0.28;100.00
29907;BME280;16776;50.958;10.994;2023-01-27T11:06:19;99162.44;;;0.28;100.00
29907;BME280;16776;50.958;10.994;2023-01-27T11:08:50;99161.66;;;0.31;100.00
29907;BME280;16776;50.958;10.994;2023-01-27T11:11:20;99154.91;;;0.31;100.00
29907;BME280;16776;50.958;10.994;2023-01-27T11:14:11;99154.97;;;0.34;100.00
29907;BME280;16776;50.958;10.994;2023-01-27T11:16:42;99156.63;;;0.34;100.00
29907;BME280;16776;50.958;10.994;2023-01-27T11:19:21;99160.13;;;0.39;100.00
29907;BME280;16776;50.958;10.994;2023-01-27T11:21:50;99147.28;;;0.30;100.00
29907;BME280;16776;50.958;10.994;2023-01-27T11:24:25;99159.34;;;0.41;100.00
29907;BME280;16776;50.958;10.994;2023-01-27T11:26:59;99158.53;;;0.42;100.00
29907;BME280;16776;50.958;10.994;2023-01-27T11:29:35;99150.97;;;0.44;100.00
29907;BME280;16776;50.958;10.994;2023-01-27T11:32:10;99156.91;;;0.46;100.00
29907;BME280;16776;50.958;10.994;2023-01-27T11:34:51;99151.91;;;0.49;100.00
29907;BME280;16776;50.958;10.994;2023-01-27T11:37:27;99138.22;;;0.41;100.00
29907;BME280;16776;50.958;10.994;2023-01-27T11:39:55;99148.66;;;0.54;100.00
29907;BME280;16776;50.958;10.994;2023-01-27T11:42:23;99151.09;;;0.50;100.00
29907;BME280;16776;50.958;10.994;2023-01-27T11:44:54;99147.81;;;0.54;100.00
29907;BME280;16776;50.958;10.994;2023-01-27T11:47:23;99127.31;;;0.45;100.00
29907;BME280;16776;50.958;10.994;2023-01-27T11:49:55;99139.41;;;0.56;100.00
29907;BME280;16776;50.958;10.994;2023-01-27T11:52:23;99136.84;;;0.55;100.00
29907;BME280;16776;50.958;10.994;2023-01-27T11:54:54;99138.59;;;0.59;100.00
29907;BME280;16776;50.958;10.994;2023-01-27T11:57:23;99131.00;;;0.59;100.00
29907;BME280;16776;50.958;10.994;2023-01-27T11:59:55;99109.53;;;0.42;100.00
29907;BME280;16776;50.958;10.994;2023-01-27T12:02:29;99124.25;;;0.59;100.00
29907;BME280;16776;50.958;10.994;2023-01-27T12:05:03;99129.47;;;0.65;100.00
29907;BME280;16776;50.958;10.994;2023-01-27T12:07:42;99131.25;;;0.70;100.00
29907;BME280;16776;50.958;10.994;2023-01-27T12:10:25;99128.72;;;0.71;100.00
29907;BME280;16776;50.958;10.994;2023-01-27T12:12:53;99122.81;;;0.71;100.00
29907;BME280;16776;50.958;10.994;2023-01-27T12:15:21;99113.41;;;0.65;100.00
29907;BME280;16776;50.958;10.994;2023-01-27T12:17:52;99117.72;;;0.69;100.00
29907;BME280;16776;50.958;10.994;2023-01-27T12:20:29;99108.53;;;0.74;100.00
29907;BME280;16776;50.958;10.994;2023-01-27T12:22:59;99114.41;;;0.73;100.00
29907;BME280;16776;50.958;10.994;2023-01-27T12:25:30;99094.06;;;0.70;100.00
29907;BME280;16776;50.958;10.994;2023-01-27T12:28:00;99099.16;;;0.72;100.00
29907;BME280;16776;50.958;10.994;2023-01-27T12:30:29;99106.97;;;0.81;100.00
29907;BME280;16776;50.958;10.994;2023-01-27T12:32:58;99112.91;;;0.83;100.00
29907;BME280;16776;50.958;10.994;2023-01-27T12:35:28;99106.22;;;0.86;100.00
29907;BME280;16776;50.958;10.994;2023-01-27T12:38:00;99108.84;;;0.88;100.00
29907;BME280;16776;50.958;10.994;2023-01-27T12:40:27;99107.97;;;0.87;100.00
29907;BME280;16776;50.958;10.994;2023-01-27T12:43:12;99103.88;;;0.94;100.00
29907;BME280;16776;50.958;10.994;2023-01-27T12:45:40;99118.97;;;0.89;100.00
29907;BME280;16776;50.958;10.994;2023-01-27T12:48:16;99108.97;;;0.95;100.00
29907;BME280;16776;50.958;10.994;2023-01-27T12:50:54;99108.00;;;0.89;100.00
29907;BME280;16776;50.958;10.994;2023-01-27T12:53:23;99101.09;;;0.83;100.00
29907;BME280;16776;50.958;10.994;2023-01-27T12:55:55;99112.28;;;0.91;100.00
29907;BME280;16776;50.958;10.994;2023-01-27T12:58:29;99113.13;;;0.92;100.00
29907;BME280;16776;50.958;10.994;2023-01-27T13:00:58;99104.56;;;0.87;100.00